Time;durP1;ratioP1;P1;durP2;ratioP2;P2;SDS_P1;SDS_P2;PMS_P1;PMS_P2;Temp;Humidity;BMP_temperature;BMP_pressure;BME280_temperature;BME280_humidity;BME280_pressure;Samples;Min_cycle;Max_cycle;Signal;HPM_P1;HPM_P2
2021/01/27 00:01:06;;;;;;;;;;;;;;;22.25;34.27;100774.50;3086170;28;113855;-82
2021/01/27 00:02:39;;;;;;;;;;;;;;;22.26;34.16;100773.31;3093813;28;113845;-82
2021/01/27 00:04:12;;;;;;;;;;;;;;;22.26;34.41;100773.31;3097358;27;113980;-81
2021/01/27 00:05:45;;;;;;;;;;;;;;;22.27;34.30;100775.00;3107241;27;113848;-82
2021/01/27 00:07:16;;;;;;;;;;;;;;;22.27;34.49;100775.00;3089701;28;114234;-81
2021/01/27 00:08:48;;;;;;;;;;;;;;;22.29;34.27;100774.69;3102604;28;115619;-81
2021/01/27 00:10:19;;;;;;;;;;;;;;;22.28;34.37;100775.81;3118601;27;115455;-82
2021/01/27 00:11:52;;;;;;;;;;;;;;;22.28;34.44;100773.00;3098670;28;115445;-81
2021/01/27 00:13:24;;;;;;;;;;;;;;;22.27;34.37;100774.16;3124528;27;115806;-81
2021/01/27 00:14:55;;;;;;;;;;;;;;;22.26;34.34;100767.69;3101626;28;115041;-81
2021/01/27 00:16:27;;;;;;;;;;;;;;;22.26;34.58;100753.63;3103293;28;114560;-80
2021/01/27 00:17:59;;;;;;;;;;;;;;;22.26;34.74;100753.63;3092715;28;116414;-81
2021/01/27 00:19:30;;;;;;;;;;;;;;;22.25;34.73;100754.81;3097130;27;113918;-82
2021/01/27 00:21:03;;;;;;;;;;;;;;;22.26;34.82;100753.63;3097902;28;115044;-83
2021/01/27 00:22:35;;;;;;;;;;;;;;;22.25;34.61;100749.19;3099629;27;115035;-82
2021/01/27 00:24:06;;;;;;;;;;;;;;;22.25;34.82;100757.63;3112192;27;118274;-82
2021/01/27 00:25:39;;;;;;;;;;;;;;;22.24;34.88;100747.50;3105925;27;116489;-81
2021/01/27 00:27:11;;;;;;;;;;;;;;;22.25;34.71;100756.78;3087396;28;114333;-81
2021/01/27 00:28:43;;;;;;;;;;;;;;;22.22;34.91;100752.63;3112123;27;115094;-81
2021/01/27 00:30:15;;;;;;;;;;;;;;;22.23;35.00;100759.91;3102406;28;114751;-81
2021/01/27 00:31:47;;;;;;;;;;;;;;;22.21;34.65;100762.25;3114076;27;115164;-81
2021/01/27 00:33:20;;;;;;;;;;;;;;;22.19;34.92;100756.09;3099317;27;116092;-81
2021/01/27 00:34:53;;;;;;;;;;;;;;;22.20;34.71;100757.75;3126095;27;115966;-82
2021/01/27 00:36:25;;;;;;;;;;;;;;;22.18;34.56;100745.97;3111762;27;115708;-82
2021/01/27 00:37:57;;;;;;;;;;;;;;;22.17;34.68;100747.13;3102791;27;116219;-81
2021/01/27 00:39:29;;;;;;;;;;;;;;;22.16;34.55;100742.69;3096169;28;116185;-81
2021/01/27 00:41:00;;;;;;;;;;;;;;;22.15;35.02;100755.91;3110209;27;116813;-82
2021/01/27 00:42:32;;;;;;;;;;;;;;;22.14;34.70;100753.41;3117122;27;117067;-81
2021/01/27 00:44:04;;;;;;;;;;;;;;;22.13;34.84;100774.25;3127467;27;116018;-82
2021/01/27 00:45:35;;;;;;;;;;;;;;;22.12;34.77;100775.44;3110947;27;116230;-81
2021/01/27 00:47:08;;;;;;;;;;;;;;;22.10;34.92;100786.19;3105760;27;116298;-81
2021/01/27 00:48:39;;;;;;;;;;;;;;;22.09;35.03;100790.97;3110033;27;115631;-82
2021/01/27 00:50:14;;;;;;;;;;;;;;;22.08;35.33;100792.13;3111197;27;114072;-81
2021/01/27 00:51:46;;;;;;;;;;;;;;;22.07;35.40;100793.28;3106331;27;114018;-82
2021/01/27 00:53:17;;;;;;;;;;;;;;;22.06;35.03;100785.16;3113373;27;113833;-81
2021/01/27 00:54:50;;;;;;;;;;;;;;;22.05;35.10;100783.50;3096635;28;113923;-83
2021/01/27 00:56:21;;;;;;;;;;;;;;;22.03;35.29;100783.81;3113124;27;114017;-83
2021/01/27 00:57:54;;;;;;;;;;;;;;;22.02;35.21;100779.34;3098006;28;113944;-83
2021/01/27 00:59:25;;;;;;;;;;;;;;;22.01;35.09;100772.06;3096669;28;114976;-82
2021/01/27 01:00:57;;;;;;;;;;;;;;;21.98;35.17;100769.91;3099255;27;113767;-82
2021/01/27 01:02:28;;;;;;;;;;;;;;;21.98;35.40;100774.69;3108335;28;113797;-82
2021/01/27 01:04:02;;;;;;;;;;;;;;;21.97;35.58;100775.84;3118053;27;113703;-83
2021/01/27 01:05:35;;;;;;;;;;;;;;;21.95;35.42;100770.53;3099593;27;114102;-82
2021/01/27 01:07:06;;;;;;;;;;;;;;;21.94;35.75;100760.44;3112059;27;114006;-82
2021/01/27 01:08:38;;;;;;;;;;;;;;;21.93;35.54;100743.88;3098298;28;114073;-83
2021/01/27 01:10:09;;;;;;;;;;;;;;;21.91;35.56;100740.53;3112648;27;114054;-82
2021/01/27 01:11:41;;;;;;;;;;;;;;;21.89;35.60;100749.31;3098619;28;113912;-82
2021/01/27 01:13:14;;;;;;;;;;;;;;;21.88;35.44;100758.06;3103793;27;114230;-83
2021/01/27 01:14:46;;;;;;;;;;;;;;;21.86;35.58;100761.19;3108414;27;116758;-82
2021/01/27 01:16:20;;;;;;;;;;;;;;;21.84;35.69;100763.50;3097558;28;114366;-83
2021/01/27 01:17:52;;;;;;;;;;;;;;;21.83;35.55;100755.38;3111664;27;114931;-82
2021/01/27 01:19:24;;;;;;;;;;;;;;;21.81;36.00;100752.88;3092702;28;113853;-82
2021/01/27 01:20:57;;;;;;;;;;;;;;;21.80;35.80;100756.03;3110877;27;114511;-82
2021/01/27 01:22:29;;;;;;;;;;;;;;;21.77;36.06;100756.66;3132832;27;116814;-82
2021/01/27 01:24:00;;;;;;;;;;;;;;;21.77;35.79;100762.28;3102878;28;115707;-84
2021/01/27 01:25:35;;;;;;;;;;;;;;;21.76;35.88;100763.44;3088002;28;115218;-82
2021/01/27 01:27:06;;;;;;;;;;;;;;;21.73;35.90;100768.56;3119390;27;115104;-82
2021/01/27 01:28:37;;;;;;;;;;;;;;;21.72;36.28;100763.25;3113830;27;115187;-82
2021/01/27 01:30:11;;;;;;;;;;;;;;;21.70;36.03;100777.66;3115793;27;117127;-83
2021/01/27 01:31:43;;;;;;;;;;;;;;;21.68;35.96;100782.75;3108122;27;114300;-82
2021/01/27 01:33:16;;;;;;;;;;;;;;;21.68;36.17;100771.50;3122800;27;116675;-82
2021/01/27 01:34:48;;;;;;;;;;;;;;;21.67;36.17;100774.63;3117331;27;117556;-81
2021/01/27 01:36:19;;;;;;;;;;;;;;;21.64;36.10;100764.84;3127013;27;116421;-83
2021/01/27 01:37:51;;;;;;;;;;;;;;;21.63;35.99;100751.94;3093048;28;115027;-82
2021/01/27 01:39:23;;;;;;;;;;;;;;;21.62;36.16;100752.28;3091967;27;114602;-83
2021/01/27 01:40:57;;;;;;;;;;;;;;;21.60;36.10;100763.84;3094882;28;114712;-82
2021/01/27 01:42:28;;;;;;;;;;;;;;;21.58;36.37;100763.31;3104614;28;116518;-81
2021/01/27 01:44:00;;;;;;;;;;;;;;;21.56;36.10;100762.81;3099178;28;115637;-83
2021/01/27 01:45:34;;;;;;;;;;;;;;;21.55;36.35;100760.31;3085784;28;115821;-82
2021/01/27 01:47:05;;;;;;;;;;;;;;;21.52;36.41;100759.00;3106802;27;114727;-82
2021/01/27 01:48:38;;;;;;;;;;;;;;;21.53;36.27;100757.81;3106156;28;117250;-82
2021/01/27 01:50:10;;;;;;;;;;;;;;;21.49;36.40;100761.59;3105267;27;116963;-83
2021/01/27 01:51:43;;;;;;;;;;;;;;;21.49;36.39;100750.34;3096157;28;116276;-83
2021/01/27 01:53:14;;;;;;;;;;;;;;;21.46;36.34;100743.38;3102676;27;117139;-83
2021/01/27 01:54:50;;;;;;;;;;;;;;;21.45;36.55;100749.31;3119405;27;114424;-83
2021/01/27 01:56:23;;;;;;;;;;;;;;;21.43;36.54;100749.66;3110461;27;114782;-82
2021/01/27 01:57:54;;;;;;;;;;;;;;;21.42;36.75;100755.59;3093913;28;114241;-83
2021/01/27 01:59:29;;;;;;;;;;;;;;;21.40;36.61;100764.34;3115167;27;113776;-82
2021/01/27 02:01:00;;;;;;;;;;;;;;;21.39;36.42;100768.31;3109657;27;114119;-84
2021/01/27 02:02:34;;;;;;;;;;;;;;;21.37;36.66;100762.16;3113094;27;113685;-83
2021/01/27 02:04:06;;;;;;;;;;;;;;;21.34;36.80;100748.75;3101471;27;113733;-83
2021/01/27 02:05:38;;;;;;;;;;;;;;;21.34;36.46;100754.38;3114836;27;113954;-84
2021/01/27 02:07:10;;;;;;;;;;;;;;;21.31;36.62;100752.19;3094622;28;114031;-81
2021/01/27 02:08:43;;;;;;;;;;;;;;;21.30;36.77;100750.56;3107564;27;113895;-83
2021/01/27 02:10:16;;;;;;;;;;;;;;;21.29;36.86;100752.53;3123580;27;113882;-82
2021/01/27 02:11:49;;;;;;;;;;;;;;;21.28;36.99;100750.03;3113738;27;113893;-83
2021/01/27 02:13:24;;;;;;;;;;;;;;;21.25;37.11;100750.69;3114516;27;113732;-83
2021/01/27 02:14:56;;;;;;;;;;;;;;;21.25;37.11;100742.25;3099549;28;113871;-82
2021/01/27 02:18:08;;;;;;;;;;;;;;;21.21;36.84;100733.59;3099328;27;114128;-82
2021/01/27 02:19:44;;;;;;;;;;;;;;;21.19;36.88;100724.69;3099668;27;114528;-83
2021/01/27 02:21:19;;;;;;;;;;;;;;;21.19;36.91;100737.88;3090162;28;114026;-83
2021/01/27 02:22:53;;;;;;;;;;;;;;;21.16;36.97;100725.31;3114117;27;115840;-81
2021/01/27 02:24:25;;;;;;;;;;;;;;;21.16;37.36;100732.91;3109796;27;113955;-82
2021/01/27 02:26:00;;;;;;;;;;;;;;;21.14;37.43;100732.38;3106161;27;116387;-82
2021/01/27 02:27:35;;;;;;;;;;;;;;;21.11;37.09;100728.22;3123840;27;114056;-82
2021/01/27 02:29:06;;;;;;;;;;;;;;;21.11;37.29;100731.03;3102470;27;114356;-82
2021/01/27 02:30:40;;;;;;;;;;;;;;;21.11;37.22;100735.81;3097837;27;115238;-83
2021/01/27 02:32:15;;;;;;;;;;;;;;;21.07;37.10;100730.00;3123394;27;115577;-83
2021/01/27 02:33:48;;;;;;;;;;;;;;;21.05;37.27;100735.09;3113002;27;115293;-82
2021/01/27 02:35:24;;;;;;;;;;;;;;;21.06;37.14;100741.56;3120338;27;115138;-82
2021/01/27 02:37:01;;;;;;;;;;;;;;;21.05;37.34;100737.06;3109664;27;114308;-82
2021/01/27 02:38:33;;;;;;;;;;;;;;;21.04;37.17;100724.16;3107142;27;114188;-81
2021/01/27 02:40:09;;;;;;;;;;;;;;;21.00;37.52;100726.78;3112283;27;115401;-82
2021/01/27 02:41:57;;;;;;;;;;;;;;;21.00;37.36;100731.56;3110709;27;114981;-83
2021/01/27 02:43:32;;;;;;;;;;;;;;;20.97;37.25;100735.03;3096991;28;116212;-82
2021/01/27 02:45:06;;;;;;;;;;;;;;;20.97;37.50;100747.09;3110096;27;116394;-83
2021/01/27 02:46:42;;;;;;;;;;;;;;;20.95;37.27;100742.91;3109586;27;115704;-81
2021/01/27 02:48:18;;;;;;;;;;;;;;;20.91;37.32;100745.53;3114397;27;115033;-82
2021/01/27 02:49:56;;;;;;;;;;;;;;;20.91;37.34;100744.69;3090548;28;117832;-83
2021/01/27 02:51:31;;;;;;;;;;;;;;;20.88;37.35;100745.34;3123287;27;114646;-84
2021/01/27 02:53:07;;;;;;;;;;;;;;;20.88;37.36;100743.38;3106029;27;114964;-83
2021/01/27 02:54:38;;;;;;;;;;;;;;;20.87;37.29;100741.69;3110266;27;116049;-84
2021/01/27 02:56:15;;;;;;;;;;;;;;;20.85;37.67;100746.78;3114726;27;115944;-83
2021/01/27 02:57:50;;;;;;;;;;;;;;;20.85;37.60;100746.78;3118670;27;115822;-82
2021/01/27 02:59:23;;;;;;;;;;;;;;;20.84;37.23;100743.19;3106533;27;115697;-83
2021/01/27 03:01:00;;;;;;;;;;;;;;;20.81;37.29;100746.59;3105863;27;116205;-83
2021/01/27 03:02:36;;;;;;;;;;;;;;;20.81;37.55;100745.75;3114082;27;116560;-82
2021/01/27 03:04:14;;;;;;;;;;;;;;;20.80;37.42;100750.53;3115042;27;117910;-82
2021/01/27 03:05:47;;;;;;;;;;;;;;;20.76;37.46;100746.72;3102180;27;114139;-83
2021/01/27 03:07:19;;;;;;;;;;;;;;;20.76;37.52;100748.69;3124542;27;113950;-83
2021/01/27 03:08:51;;;;;;;;;;;;;;;20.73;37.31;100747.34;3108595;28;113737;-83
2021/01/27 03:10:25;;;;;;;;;;;;;;;20.74;37.39;100751.00;3121621;27;113940;-83
2021/01/27 03:11:56;;;;;;;;;;;;;;;20.73;37.70;100747.34;3102775;27;114054;-83
2021/01/27 03:13:28;;;;;;;;;;;;;;;20.72;37.52;100742.03;3109218;28;113891;-83
2021/01/27 03:15:01;;;;;;;;;;;;;;;20.70;37.54;100744.34;3110486;27;113842;-84
2021/01/27 03:16:37;;;;;;;;;;;;;;;20.69;37.68;100745.47;3125022;27;114235;-83
2021/01/27 03:18:14;;;;;;;;;;;;;;;20.67;37.72;100742.97;3099072;28;113902;-83
2021/01/27 03:19:52;;;;;;;;;;;;;;;20.65;37.84;100742.47;3129530;27;113923;-84
2021/01/27 03:21:25;;;;;;;;;;;;;;;20.64;37.66;100740.81;3098107;28;113773;-82
2021/01/27 03:23:02;;;;;;;;;;;;;;;20.63;37.77;100733.53;3104348;27;113868;-82
2021/01/27 03:24:36;;;;;;;;;;;;;;;20.61;38.01;100735.84;3100088;28;113795;-83
2021/01/27 03:26:08;;;;;;;;;;;;;;;20.60;37.87;100722.94;3099159;28;113771;-81
2021/01/27 03:27:44;;;;;;;;;;;;;;;20.57;38.00;100720.78;3096087;28;114108;-82
2021/01/27 03:29:16;;;;;;;;;;;;;;;20.54;38.07;100721.38;3109639;27;115034;-83
2021/01/27 03:30:49;;;;;;;;;;;;;;;20.56;37.96;100732.31;3117830;27;115239;-83
2021/01/27 03:32:24;;;;;;;;;;;;;;;20.54;38.11;100712.13;3088502;28;115362;-84
2021/01/27 03:34:00;;;;;;;;;;;;;;;20.52;38.08;100711.63;3101089;28;115579;-83
2021/01/27 03:35:35;;;;;;;;;;;;;;;20.53;38.24;100716.94;3115227;27;114308;-82
2021/01/27 03:37:10;;;;;;;;;;;;;;;20.51;38.03;100713.59;3100018;28;115258;-81
2021/01/27 03:38:45;;;;;;;;;;;;;;;20.50;38.46;100713.91;3104562;28;118368;-83
2021/01/27 03:40:18;;;;;;;;;;;;;;;20.48;38.30;100708.63;3133874;27;114335;-82
2021/01/27 03:41:54;;;;;;;;;;;;;;;20.45;38.51;100714.84;3115464;27;115654;-84
2021/01/27 03:43:28;;;;;;;;;;;;;;;20.46;38.65;100715.69;3113324;27;114339;-83
2021/01/27 03:45:04;;;;;;;;;;;;;;;20.44;38.89;100713.19;3110133;28;115520;-83
2021/01/27 03:46:38;;;;;;;;;;;;;;;20.44;38.70;100720.78;3127676;27;115090;-82
2021/01/27 03:48:13;;;;;;;;;;;;;;;20.45;39.09;100720.47;3098604;28;116114;-84
2021/01/27 03:49:52;;;;;;;;;;;;;;;20.42;39.03;100724.72;3110849;27;114942;-84
2021/01/27 03:51:24;;;;;;;;;;;;;;;20.43;38.72;100739.59;3116631;27;115951;-83
2021/01/27 03:52:59;;;;;;;;;;;;;;;20.40;39.10;100735.44;3126822;27;115855;-83
2021/01/27 03:54:32;;;;;;;;;;;;;;;20.37;38.81;100730.44;3094854;28;114901;-83
2021/01/27 03:56:07;;;;;;;;;;;;;;;20.37;38.59;100740.84;3099721;28;114462;-84
2021/01/27 03:57:42;;;;;;;;;;;;;;;20.35;39.00;100743.16;3113778;27;115879;-82
2021/01/27 03:59:13;;;;;;;;;;;;;;;20.32;39.13;100750.19;3097569;28;114778;-83
2021/01/27 04:00:46;;;;;;;;;;;;;;;20.32;38.91;100753.00;3102456;28;116286;-83
2021/01/27 04:02:21;;;;;;;;;;;;;;;20.31;39.08;100761.72;3117146;27;116184;-83
2021/01/27 04:03:53;;;;;;;;;;;;;;;20.29;39.31;100767.63;3098329;28;116273;-83
2021/01/27 04:05:24;;;;;;;;;;;;;;;20.29;39.07;100767.63;3109095;28;115900;-82
2021/01/27 04:06:57;;;;;;;;;;;;;;;20.29;38.81;100766.78;3096892;28;115968;-84
2021/01/27 04:08:29;;;;;;;;;;;;;;;20.25;38.90;100760.97;3113019;27;115732;-84
2021/01/27 04:10:03;;;;;;;;;;;;;;;20.24;39.11;100770.53;3113145;27;115117;-83
2021/01/27 04:11:34;;;;;;;;;;;;;;;20.23;38.97;100770.84;3091133;28;113737;-84
2021/01/27 04:13:06;;;;;;;;;;;;;;;20.24;38.61;100764.91;3085970;28;114215;-83
2021/01/27 04:14:38;;;;;;;;;;;;;;;20.22;39.09;100772.81;3117504;27;113689;-83
2021/01/27 04:16:11;;;;;;;;;;;;;;;20.22;38.88;100761.59;3102995;28;113702;-83
2021/01/27 04:17:43;;;;;;;;;;;;;;;20.20;39.02;100760.25;3087125;28;113716;-82
2021/01/27 04:19:16;;;;;;;;;;;;;;;20.21;38.92;100761.91;3122684;27;113837;-83
2021/01/27 04:20:48;;;;;;;;;;;;;;;20.20;39.09;100763.06;3123615;27;113989;-83
2021/01/27 04:22:19;;;;;;;;;;;;;;;20.18;39.13;100760.53;3094360;28;114008;-83
2021/01/27 04:23:52;;;;;;;;;;;;;;;20.17;39.14;100755.25;3115637;27;113845;-82
2021/01/27 04:25:24;;;;;;;;;;;;;;;20.16;38.92;100767.63;3104991;27;113904;-83
2021/01/27 04:26:56;;;;;;;;;;;;;;;20.13;39.20;100769.06;3091408;28;114039;-83
2021/01/27 04:28:27;;;;;;;;;;;;;;;20.12;39.10;100764.59;3103101;27;114116;-83
2021/01/27 04:30:00;;;;;;;;;;;;;;;20.13;39.02;100768.22;3107958;27;113751;-83
2021/01/27 04:31:31;;;;;;;;;;;;;;;20.13;39.17;100773.81;3107803;27;113700;-82
2021/01/27 04:33:05;;;;;;;;;;;;;;;20.11;39.21;100779.78;3115146;27;113694;-83
2021/01/27 04:34:38;;;;;;;;;;;;;;;20.10;39.03;100792.13;3099160;27;114082;-82
2021/01/27 04:36:10;;;;;;;;;;;;;;;20.07;39.12;100797.53;3113799;27;114027;-82
2021/01/27 04:37:42;;;;;;;;;;;;;;;20.08;39.16;100796.41;3120246;27;114431;-83
2021/01/27 04:39:13;;;;;;;;;;;;;;;20.05;39.10;100789.41;3102241;28;115193;-82
2021/01/27 04:40:46;;;;;;;;;;;;;;;20.04;39.21;100796.16;3096099;28;115328;-84
2021/01/27 04:42:21;;;;;;;;;;;;;;;20.03;39.30;100794.50;3107598;27;115601;-83
2021/01/27 04:43:52;;;;;;;;;;;;;;;20.02;39.12;100795.66;3115778;27;113943;-82
2021/01/27 04:45:24;;;;;;;;;;;;;;;20.02;39.06;100792.00;3102475;27;115473;-84
2021/01/27 04:46:58;;;;;;;;;;;;;;;20.00;39.08;100792.31;3111257;27;113901;-83
2021/01/27 04:48:34;;;;;;;;;;;;;;;19.98;39.34;100792.63;3096090;28;115271;-82
2021/01/27 04:50:11;;;;;;;;;;;;;;;19.98;39.40;100800.22;3121696;27;115200;-84
2021/01/27 04:51:46;;;;;;;;;;;;;;;19.96;39.41;100797.72;3100098;28;115621;-83
2021/01/27 04:53:26;;;;;;;;;;;;;;;19.93;39.38;100792.72;3082889;28;114496;-84
2021/01/27 04:55:01;;;;;;;;;;;;;;;19.97;38.98;100787.31;3129425;27;116540;-83
2021/01/27 04:56:35;;;;;;;;;;;;;;;19.95;39.27;100787.63;3105528;27;115896;-83
2021/01/27 04:58:14;;;;;;;;;;;;;;;19.94;39.50;100797.16;3116725;27;115306;-83
2021/01/27 04:59:49;;;;;;;;;;;;;;;19.89;39.71;100802.91;3115371;27;115826;-82
2021/01/27 05:01:22;;;;;;;;;;;;;;;19.90;39.38;100806.50;3113450;27;116325;-82
2021/01/27 05:03:00;;;;;;;;;;;;;;;19.91;39.41;100806.22;3100500;28;114900;-83
2021/01/27 05:04:35;;;;;;;;;;;;;;;19.90;39.64;100809.31;3129388;27;114719;-83
2021/01/27 05:06:07;;;;;;;;;;;;;;;19.90;39.64;100814.91;3103696;27;116733;-84
2021/01/27 05:07:46;;;;;;;;;;;;;;;19.92;39.48;100818.25;3091917;28;115790;-82
2021/01/27 05:09:18;;;;;;;;;;;;;;;19.97;39.65;100830.22;3101557;28;114963;-83
2021/01/27 05:10:53;;;;;;;;;;;;;;;19.99;39.80;100833.53;3106543;28;116675;-82
2021/01/27 05:12:32;;;;;;;;;;;;;;;20.01;39.55;100833.25;3133067;27;115971;-82
2021/01/27 05:14:07;;;;;;;;;;;;;;;20.03;39.71;100836.59;3101656;28;115817;-82
2021/01/27 05:15:38;;;;;;;;;;;;;;;20.05;39.90;100842.69;3112862;27;114688;-84
2021/01/27 05:17:10;;;;;;;;;;;;;;;20.08;40.62;100835.66;3108717;27;113797;-82
2021/01/27 05:18:41;;;;;;;;;;;;;;;20.12;40.54;100831.09;3091797;28;113689;-84
2021/01/27 05:20:15;;;;;;;;;;;;;;;20.15;40.92;100824.84;3118181;27;114062;-83
2021/01/27 05:21:50;;;;;;;;;;;;;;;20.18;40.71;100824.22;3096906;28;113740;-83
2021/01/27 05:23:22;;;;;;;;;;;;;;;20.22;40.44;100825.28;3110546;27;113980;-84
2021/01/27 05:24:54;;;;;;;;;;;;;;;20.26;40.74;100817.94;3098611;28;113928;-84
2021/01/27 05:26:32;;;;;;;;;;;;;;;20.31;40.86;100826.25;3093572;28;113876;-82
2021/01/27 05:28:06;;;;;;;;;;;;;;;20.36;41.02;100814.94;3092356;28;113911;-83
2021/01/27 05:29:40;;;;;;;;;;;;;;;20.40;40.78;100819.63;3103562;28;113826;-83
2021/01/27 05:31:11;;;;;;;;;;;;;;;20.45;40.65;100818.69;3113272;27;113988;-83
2021/01/27 05:32:46;;;;;;;;;;;;;;;20.50;40.53;100817.75;3103709;27;113737;-82
2021/01/27 05:34:22;;;;;;;;;;;;;;;20.56;40.44;100808.09;3111998;27;113678;-83
2021/01/27 05:36:05;;;;;;;;;;;;;;;20.59;40.39;100810.25;3105538;27;113625;-82
2021/01/27 05:37:36;;;;;;;;;;;;;;;20.65;40.37;100811.84;3109235;27;113965;-82
2021/01/27 05:39:11;;;;;;;;;;;;;;;20.69;39.99;100807.25;3105226;28;113820;-83
2021/01/27 05:40:43;;;;;;;;;;;;;;;20.73;39.88;100800.69;3121573;27;115662;-82
2021/01/27 05:42:18;;;;;;;;;;;;;;;20.78;39.89;100803.41;3101210;28;115239;-83
2021/01/27 05:43:51;;;;;;;;;;;;;;;20.82;39.88;100786.75;3119288;27;115903;-83
2021/01/27 05:45:24;;;;;;;;;;;;;;;20.88;39.85;100790.28;3102280;27;115098;-83
2021/01/27 05:46:55;;;;;;;;;;;;;;;20.92;39.62;100792.16;3106832;27;114359;-83
2021/01/27 05:48:27;;;;;;;;;;;;;;;20.98;39.47;100792.88;3092681;28;113800;-83
2021/01/27 05:50:19;;;;;;;;;;;;;;;21.01;39.36;100795.03;3108941;27;113789;-82
2021/01/27 05:51:50;;;;;;;;;;;;;;;21.05;39.21;100798.88;3099839;28;115017;-82
2021/01/27 05:53:24;;;;;;;;;;;;;;;21.09;39.08;100799.91;3101087;28;115266;-83
2021/01/27 05:56:40;;;;;;;;;;;;;;;21.18;38.82;100795.22;3124518;27;114301;-84
2021/01/27 05:58:16;;;;;;;;;;;;;;;21.22;38.77;100799.91;3101610;28;116048;-83
2021/01/27 05:59:48;;;;;;;;;;;;;;;21.26;38.87;100797.28;3122014;27;115741;-83
2021/01/27 06:01:23;;;;;;;;;;;;;;;21.31;39.40;100802.78;3114659;27;115332;-82
2021/01/27 06:02:56;;;;;;;;;;;;;;;21.33;39.43;100796.84;3086776;28;116330;-83
2021/01/27 06:04:29;;;;;;;;;;;;;;;21.38;38.91;100800.38;3109447;27;114556;-82
2021/01/27 06:06:08;;;;;;;;;;;;;;;21.42;39.06;100795.78;3097856;27;116510;-83
2021/01/27 06:07:40;;;;;;;;;;;;;;;21.46;39.20;100791.19;3102298;27;116277;-82
2021/01/27 06:09:12;;;;;;;;;;;;;;;21.48;38.97;100791.72;3110189;27;115777;-83
2021/01/27 06:10:43;;;;;;;;;;;;;;;21.52;39.00;100787.09;3102895;28;115834;-82
2021/01/27 06:12:18;;;;;;;;;;;;;;;21.56;39.00;100790.09;3098361;27;115340;-83
2021/01/27 06:14:03;;;;;;;;;;;;;;;21.59;38.50;100781.84;3102495;28;114605;-82
2021/01/27 06:15:34;;;;;;;;;;;;;;;21.64;38.43;100786.50;3109588;27;113709;-83
2021/01/27 06:17:09;;;;;;;;;;;;;;;21.67;38.46;100791.50;3104502;27;115139;-83
2021/01/27 06:18:40;;;;;;;;;;;;;;;21.70;38.48;100794.50;3106859;27;116123;-83
2021/01/27 06:20:12;;;;;;;;;;;;;;;21.74;38.19;100791.88;3107022;27;116949;-84
2021/01/27 06:21:47;;;;;;;;;;;;;;;21.77;38.13;100790.41;3107457;27;115768;-84
2021/01/27 06:23:19;;;;;;;;;;;;;;;21.79;38.07;100794.56;3107631;27;115734;-83
2021/01/27 06:24:52;;;;;;;;;;;;;;;21.83;38.07;100795.59;3108489;27;116519;-83
2021/01/27 06:26:26;;;;;;;;;;;;;;;21.86;38.10;100794.09;3094746;28;113672;-83
2021/01/27 06:28:00;;;;;;;;;;;;;;;21.89;38.01;100799.09;3128744;27;114185;-83
2021/01/27 06:29:35;;;;;;;;;;;;;;;21.92;38.03;100804.91;3113908;27;113731;-82
2021/01/27 06:31:09;;;;;;;;;;;;;;;21.96;38.02;100805.13;3104894;28;114051;-83
2021/01/27 06:32:44;;;;;;;;;;;;;;;21.98;37.80;100808.47;3100924;27;113717;-83
2021/01/27 06:34:18;;;;;;;;;;;;;;;22.01;37.86;100819.06;3101482;28;114014;-83
2021/01/27 06:35:53;;;;;;;;;;;;;;;22.04;37.78;100812.78;3131369;27;113872;-83
2021/01/27 06:37:27;;;;;;;;;;;;;;;22.06;37.98;100821.75;3105348;28;113995;-83
2021/01/27 06:39:02;;;;;;;;;;;;;;;22.09;37.88;100821.09;3123364;27;114001;-83
2021/01/27 06:40:36;;;;;;;;;;;;;;;22.14;38.42;100818.13;3102360;27;113957;-83
2021/01/27 06:42:12;;;;;;;;;;;;;;;22.14;38.36;100810.53;3099422;28;113894;-83
2021/01/27 06:43:47;;;;;;;;;;;;;;;22.16;38.05;100818.66;3102564;28;114071;-82
2021/01/27 06:45:23;;;;;;;;;;;;;;;22.19;37.70;100815.19;3094364;27;113821;-83
2021/01/27 06:46:57;;;;;;;;;;;;;;;22.22;37.65;100816.50;3107941;28;114012;-83
2021/01/27 06:48:38;;;;;;;;;;;;;;;22.25;37.78;100819.53;3097655;27;115819;-82
2021/01/27 06:50:09;;;;;;;;;;;;;;;22.26;37.63;100821.19;3111183;27;114979;-83
2021/01/27 06:51:44;;;;;;;;;;;;;;;22.28;37.58;100824.50;3101896;27;115848;-83
2021/01/27 06:53:18;;;;;;;;;;;;;;;22.30;37.48;100819.41;3122790;27;116017;-82
2021/01/27 06:54:52;;;;;;;;;;;;;;;22.32;37.63;100825.53;3109923;27;115921;-83
2021/01/27 06:56:27;;;;;;;;;;;;;;;22.35;37.69;100835.31;3117480;27;115322;-83
2021/01/27 06:58:01;;;;;;;;;;;;;;;22.38;37.46;100841.13;3110388;27;115359;-83
2021/01/27 06:59:35;;;;;;;;;;;;;;;22.39;37.63;100837.16;3119124;27;115257;-83
2021/01/27 07:01:11;;;;;;;;;;;;;;;22.42;37.52;100838.50;3116017;27;114870;-83
2021/01/27 07:02:45;;;;;;;;;;;;;;;22.44;37.44;100839.00;3110454;28;117278;-83
2021/01/27 07:04:17;;;;;;;;;;;;;;;22.46;37.25;100822.59;3102558;28;115067;-83
2021/01/27 07:05:50;;;;;;;;;;;;;;;22.48;37.25;100823.97;3100350;27;115104;-83
2021/01/27 07:07:23;;;;;;;;;;;;;;;22.50;37.66;100835.72;3108908;27;115823;-83
2021/01/27 07:08:59;;;;;;;;;;;;;;;22.52;37.66;100819.34;3115110;27;115462;-83
2021/01/27 07:10:31;;;;;;;;;;;;;;;22.57;37.49;100826.81;3099714;27;115887;-83
2021/01/27 07:12:06;;;;;;;;;;;;;;;22.57;37.26;100827.63;3099057;28;115714;-83
2021/01/27 07:13:40;;;;;;;;;;;;;;;22.59;37.21;100830.94;3131888;27;115921;-82
2021/01/27 07:15:13;;;;;;;;;;;;;;;22.62;37.23;100837.94;3105359;27;117889;-83
2021/01/27 07:16:48;;;;;;;;;;;;;;;22.63;37.30;100831.13;3099696;28;115704;-84
2021/01/27 07:18:23;;;;;;;;;;;;;;;22.66;37.46;100819.22;3124387;27;115205;-83
2021/01/27 07:19:57;;;;;;;;;;;;;;;22.69;37.30;100818.56;3101568;28;116930;-84
2021/01/27 07:21:35;;;;;;;;;;;;;;;22.72;37.12;100808.63;3113104;27;114085;-83
2021/01/27 07:23:13;;;;;;;;;;;;;;;22.74;37.13;100814.78;3118106;27;114573;-82
2021/01/27 07:24:48;;;;;;;;;;;;;;;22.76;36.95;100820.94;3095529;28;114646;-84
2021/01/27 07:26:23;;;;;;;;;;;;;;;22.78;37.05;100829.88;3117338;27;115992;-83
2021/01/27 07:28:01;;;;;;;;;;;;;;;22.79;36.93;100828.72;3096273;28;114488;-83
2021/01/27 07:29:38;;;;;;;;;;;;;;;22.81;37.05;100826.41;3116040;27;116199;-84
2021/01/27 07:31:12;;;;;;;;;;;;;;;22.84;36.88;100828.59;3105749;28;115842;-83
2021/01/27 07:32:48;;;;;;;;;;;;;;;22.85;37.00;100821.81;3118363;27;113858;-83
2021/01/27 07:34:21;;;;;;;;;;;;;;;;;;3103644;27;114043;-84
2021/01/27 07:35:54;;;;;;;;;;;;;;;22.89;36.75;100831.25;3089480;28;127021;-83
2021/01/27 07:37:27;;;;;;;;;;;;;;;22.91;36.58;100843.00;3104582;27;113847;-84
2021/01/27 07:39:00;;;;;;;;;;;;;;;22.93;36.75;100851.97;3104087;27;113932;-84
2021/01/27 07:40:35;;;;;;;;;;;;;;;22.95;36.69;100860.91;3122597;27;113953;-84
2021/01/27 07:42:12;;;;;;;;;;;;;;;22.98;36.86;100868.75;3103297;28;114049;-83
2021/01/27 07:43:46;;;;;;;;;;;;;;;22.99;37.11;100868.38;3093947;28;114102;-83
2021/01/27 07:45:21;;;;;;;;;;;;;;;23.01;36.90;100862.44;3105147;28;114095;-83
2021/01/27 07:47:00;;;;;;;;;;;;;;;23.03;36.75;100877.03;3121763;27;113886;-83
2021/01/27 07:48:34;;;;;;;;;;;;;;;23.04;36.63;100870.22;3107542;27;113855;-84
2021/01/27 07:50:07;;;;;;;;;;;;;;;23.08;37.12;100868.41;3109638;27;113902;-83
2021/01/27 07:51:39;;;;;;;;;;;;;;;23.09;36.84;100866.44;3096770;27;113825;-84
2021/01/27 07:53:13;;;;;;;;;;;;;;;23.11;36.62;100875.41;3127768;27;113994;-84
2021/01/27 07:54:48;;;;;;;;;;;;;;;23.11;36.41;100876.22;3114382;27;114041;-80
2021/01/27 07:56:22;;;;;;;;;;;;;;;23.13;36.60;100882.34;3110508;27;114440;-83
2021/01/27 07:58:01;;;;;;;;;;;;;;;23.13;36.58;100871.06;3096481;28;115281;-83
2021/01/27 07:59:35;;;;;;;;;;;;;;;23.16;37.08;100875.25;3125870;27;115124;-83